Terminal Aerodrome Forecast
Issued by NWS

Home | Current Version | Previous Version | Text Only | Print | Product List | Glossary On
Versions: 1 2 3 4 5 6 7 8 9 10 11 12 13 14 15 16 17 18 19 20 21 22 23 24 25 26 27
000
FTUS41 KBUF 231100
TAFJHW
TAF
KJHW 231121Z 2312/2412 19005KT 4SM BR FEW250
      TEMPO 2312/2313 1SM BR
     FM231300 21005KT P6SM FEW250
     FM231500 26005KT P6SM FEW035 FEW250
     FM232100 31005KT P6SM FEW250
     FM240000 VRB03KT P6SM SKC
     FM240600 VRB03KT 1SM BR SCT001
      AMD LTD TO CLD VIS AND WIND=

USA.gov is the U.S. government's official web portal to all federal, state and local government web resources and services.